createdAt,value
2019-02-18T00:02:36.226Z,9.03
2019-02-18T00:05:17.581Z,15.73
2019-02-18T00:10:46.495Z,9.93
2019-02-18T00:16:18.225Z,9.67
2019-02-18T00:21:50.237Z,10.83
2019-02-18T00:24:20.600Z,8.77
2019-02-18T00:26:49.790Z,10.60
2019-02-18T00:29:18.862Z,13.47
2019-02-18T00:34:47.429Z,9.87
2019-02-18T00:40:01.335Z,10.10
2019-02-18T00:43:12.231Z,14.43
2019-02-18T00:45:41.519Z,5.77
2019-02-18T00:51:22.205Z,10.30
2019-02-18T00:54:10.473Z,6.70
2019-02-18T00:56:58.786Z,7.50
2019-02-18T01:02:30.350Z,8.10
2019-02-18T01:07:58.745Z,7.47
2019-02-18T01:13:31.240Z,7.77
2019-02-18T01:19:03.389Z,8.37
2019-02-18T01:24:35.318Z,7.93
2019-02-18T01:27:04.418Z,7.30
2019-02-18T01:29:52.602Z,5.40
2019-02-18T01:32:37.289Z,7.70
2019-02-18T01:35:06.815Z,6.90
2019-02-18T01:37:55.003Z,7.30
2019-02-18T01:40:39.043Z,7.00
2019-02-18T01:43:20.423Z,8.10
2019-02-18T01:46:04.533Z,7.50
2019-02-18T01:51:36.436Z,7.67
2019-02-18T01:57:06.275Z,9.67
2019-02-18T01:59:47.096Z,6.73
2019-02-18T02:02:27.620Z,12.30
2019-02-18T02:04:56.768Z,9.23
2019-02-18T02:07:55.408Z,7.00
2019-02-18T02:10:35.026Z,9.13
2019-02-18T02:13:18.814Z,10.83
2019-02-18T02:18:44.634Z,6.47
2019-02-18T02:24:17.147Z,8.73
2019-02-18T02:27:01.308Z,7.83
2019-02-18T02:29:45.348Z,9.00
2019-02-18T02:35:01.787Z,6.87
2019-02-18T02:37:31.092Z,8.10
2019-02-18T02:40:19.415Z,7.37
2019-02-18T02:42:48.614Z,7.20
2019-02-18T02:45:36.874Z,10.38
2019-02-18T02:48:17.814Z,6.40
2019-02-18T02:51:07.559Z,10.40
2019-02-18T02:53:55.856Z,6.50
2019-02-18T02:56:46.713Z,8.33
2019-02-18T02:59:28.348Z,10.17
2019-02-18T03:02:12.840Z,9.13
2019-02-18T03:07:41.499Z,6.58
2019-02-18T03:10:21.944Z,9.03
2019-02-18T03:15:52.047Z,8.80
2019-02-18T03:18:35.729Z,11.37
2019-02-18T03:24:07.988Z,7.47
2019-02-18T03:26:49.248Z,10.33
2019-02-18T03:29:33.174Z,9.80
2019-02-18T03:35:04.946Z,5.57
2019-02-18T03:40:22.628Z,8.18
2019-02-18T03:42:51.720Z,9.30
2019-02-18T03:45:40.069Z,6.58
2019-02-18T03:48:28.302Z,7.97
2019-02-18T03:51:12.416Z,7.17
2019-02-18T03:53:53.869Z,8.10
2019-02-18T03:56:34.406Z,8.10
2019-02-18T03:59:18.683Z,5.42
2019-02-18T04:02:04.183Z,6.50
2019-02-18T04:07:21.951Z,13.47
2019-02-18T04:10:10.241Z,9.23
2019-02-18T04:12:54.668Z,10.32
2019-02-18T04:18:21.261Z,13.03
2019-02-18T04:23:53.036Z,8.58
2019-02-18T04:29:21.619Z,9.27
2019-02-18T04:31:50.831Z,12.20
2019-02-18T04:37:20.586Z,10.15
2019-02-18T04:40:02.063Z,11.40
2019-02-18T04:42:45.687Z,10.72
2019-02-18T04:48:15.429Z,7.03
2019-02-18T04:53:44.899Z,10.53
2019-02-18T04:56:30.341Z,7.55
2019-02-18T04:59:14.041Z,9.18
2019-02-18T05:04:42.508Z,5.90
2019-02-18T05:10:11.094Z,5.40
2019-02-18T05:12:52.745Z,8.43
2019-02-18T05:15:37.094Z,7.05
2019-02-18T05:18:06.404Z,8.60
2019-02-18T05:20:35.591Z,8.68
2019-02-18T05:23:23.858Z,10.23
2019-02-18T05:26:12.697Z,8.15
2019-02-18T05:31:44.594Z,8.63
2019-02-18T05:34:25.258Z,10.25
2019-02-18T05:37:06.129Z,6.95
2019-02-18T05:42:32.617Z,6.10
2019-02-18T05:45:01.808Z,7.33
2019-02-18T05:47:50.231Z,8.30
2019-02-18T05:50:41.010Z,6.40
2019-02-18T05:53:20.335Z,8.25
2019-02-18T05:56:08.648Z,12.73
2019-02-18T05:58:52.852Z,11.65
2019-02-18T06:01:34.234Z,14.68
2019-02-18T06:04:17.968Z,11.73
2019-02-18T06:09:49.960Z,15.63
2019-02-18T06:12:20.351Z,13.43
2019-02-18T06:15:08.905Z,17.57
2019-02-18T06:17:57.227Z,14.87
2019-02-18T06:20:38.119Z,13.13
2019-02-18T06:26:09.776Z,13.72
2019-02-18T06:31:27.431Z,8.63
2019-02-18T06:37:00.954Z,9.08
2019-02-18T06:42:27.403Z,9.28
2019-02-18T06:47:40.793Z,9.20
2019-02-18T06:50:29.199Z,9.20
2019-02-18T06:53:13.727Z,10.93
2019-02-18T06:55:43.178Z,7.03
2019-02-18T06:58:50.462Z,26.52
2019-02-18T07:01:38.553Z,25.15
2019-02-18T07:04:26.756Z,30.23
2019-02-18T07:07:04.347Z,43.40
2019-02-18T07:10:00.260Z,51.30
2019-02-18T07:12:47.091Z,62.43
2019-02-18T07:18:13.618Z,41.00
2019-02-18T07:23:45.287Z,30.90
2019-02-18T07:28:58.274Z,20.73
2019-02-18T07:31:46.543Z,17.65
2019-02-18T07:34:34.951Z,27.40
2019-02-18T07:40:02.027Z,19.83
2019-02-18T07:45:28.555Z,15.03
2019-02-18T07:51:00.874Z,13.67
2019-02-18T07:56:30.664Z,9.87
2019-02-18T08:02:02.451Z,15.73
2019-02-18T08:07:31.880Z,11.50
2019-02-18T08:16:01.037Z,10.13
2019-02-18T08:21:33.724Z,10.60
2019-02-18T08:24:18.324Z,8.27
2019-02-18T08:27:02.134Z,9.90
2019-02-18T08:29:31.871Z,7.80
2019-02-18T08:32:01.108Z,9.17
2019-02-18T08:34:45.191Z,10.60
2019-02-18T08:40:22.082Z,12.23
2019-02-18T08:45:47.816Z,10.40
2019-02-18T08:58:05.334Z,15.17
2019-02-18T09:03:59.170Z,14.60
2019-02-18T09:12:13.321Z,10.40
2019-02-18T09:15:01.625Z,11.97
2019-02-18T09:17:30.797Z,21.60
2019-02-18T09:20:19.152Z,10.83
2019-02-18T09:23:02.585Z,12.33
2019-02-18T09:28:56.450Z,17.00
2019-02-18T09:34:21.764Z,13.83
2019-02-18T09:39:54.681Z,12.73
2019-02-18T09:42:35.823Z,15.37
2019-02-18T09:48:16.339Z,11.23
2019-02-18T09:56:36.848Z,12.90
2019-02-18T09:59:17.937Z,15.13
2019-02-18T10:08:14.837Z,11.30
2019-02-18T10:10:57.472Z,11.73
2019-02-18T10:13:38.703Z,14.53
2019-02-18T10:16:19.515Z,22.03
2019-02-18T10:19:01.391Z,15.10
2019-02-18T10:21:40.737Z,13.07
2019-02-18T10:24:21.773Z,11.83
2019-02-18T10:27:03.939Z,9.73
2019-02-18T10:29:33.186Z,9.37
2019-02-18T10:32:21.026Z,16.07
2019-02-18T10:35:01.968Z,16.40
2019-02-18T10:37:43.367Z,13.43
2019-02-18T10:40:22.553Z,9.30
2019-02-18T10:43:10.869Z,11.30
2019-02-18T10:45:39.979Z,9.80
2019-02-18T10:48:32.048Z,10.10
2019-02-18T10:51:01.196Z,10.50
2019-02-18T10:53:49.454Z,9.63
2019-02-18T10:56:30.671Z,9.63
2019-02-18T10:59:11.360Z,12.80
2019-02-18T11:01:52.492Z,10.87
2019-02-18T11:04:33.458Z,9.30
2019-02-18T11:07:14.005Z,9.40
2019-02-18T11:09:54.656Z,10.00
2019-02-18T11:12:35.978Z,10.60
2019-02-18T11:15:05.689Z,10.10
2019-02-18T11:17:46.573Z,7.50
2019-02-18T11:20:27.956Z,10.60
2019-02-18T11:23:07.306Z,12.60
2019-02-18T11:25:55.609Z,10.93
2019-02-18T11:28:36.779Z,9.90
2019-02-18T11:31:17.702Z,8.00
2019-02-18T11:33:59.463Z,8.97
2019-02-18T11:36:40.658Z,6.27
2019-02-18T11:39:21.628Z,7.57
2019-02-18T11:42:03.099Z,6.93
2019-02-18T11:44:45.299Z,7.83
2019-02-18T11:47:14.383Z,5.53
2019-02-18T11:52:33.079Z,14.57
2019-02-18T11:55:13.895Z,8.30
2019-02-18T11:57:55.100Z,5.40
2019-02-18T12:00:36.401Z,8.20
2019-02-18T12:03:17.995Z,4.80
2019-02-18T12:05:58.826Z,5.43
2019-02-18T12:08:39.789Z,3.80
2019-02-18T12:11:11.215Z,3.60
2019-02-18T12:16:36.515Z,5.17
2019-02-18T12:19:17.430Z,6.80
2019-02-18T12:21:58.120Z,5.20
2019-02-18T12:24:39.290Z,4.13
2019-02-18T12:27:19.917Z,9.20
2019-02-18T12:30:01.225Z,4.67
2019-02-18T12:32:42.762Z,5.57
2019-02-18T12:35:30.829Z,5.30
2019-02-18T12:37:56.280Z,4.40
2019-02-18T12:40:44.828Z,4.57
2019-02-18T12:43:32.985Z,4.10
2019-02-18T12:46:16.136Z,3.43
2019-02-18T12:48:56.404Z,6.33
2019-02-18T12:51:37.139Z,6.40
2019-02-18T12:54:18.120Z,2.90
2019-02-18T12:56:59.391Z,4.80
2019-02-18T12:59:40.630Z,3.10
2019-02-18T13:02:22.023Z,4.63
2019-02-18T13:05:02.943Z,3.87
2019-02-18T13:07:44.365Z,3.63
2019-02-18T13:10:13.514Z,3.40
2019-02-18T13:13:03.437Z,4.60
2019-02-18T13:15:44.387Z,3.30
2019-02-18T13:18:24.974Z,5.37
2019-02-18T13:21:05.904Z,3.30
2019-02-18T13:23:46.610Z,3.30
2019-02-18T13:26:27.218Z,3.17
2019-02-18T13:29:08.139Z,3.80
2019-02-18T13:31:49.454Z,4.63
2019-02-18T13:34:30.612Z,3.70
2019-02-18T13:37:12.032Z,3.30
2019-02-18T13:39:53.547Z,3.57
2019-02-18T13:42:34.238Z,7.00
2019-02-18T13:45:15.911Z,4.23
2019-02-18T13:47:45.058Z,3.37
2019-02-18T13:50:33.375Z,6.07
2019-02-18T13:53:14.727Z,3.60
2019-02-18T13:55:44.256Z,3.33
2019-02-18T13:58:32.632Z,4.00
2019-02-18T14:01:20.812Z,3.13
2019-02-18T14:04:02.280Z,5.47
2019-02-18T14:06:43.271Z,5.10
2019-02-18T14:09:24.108Z,7.73
2019-02-18T14:12:04.728Z,4.37
2019-02-18T14:14:45.612Z,4.30
2019-02-18T14:17:27.056Z,4.10
2019-02-18T14:20:07.929Z,3.50
2019-02-18T14:22:57.196Z,5.17
2019-02-18T14:25:38.270Z,3.03
2019-02-18T14:28:18.949Z,4.20
2019-02-18T14:30:59.661Z,5.07
2019-02-18T14:33:40.367Z,5.60
2019-02-18T14:36:21.387Z,4.80
2019-02-18T14:39:02.244Z,3.50
2019-02-18T14:41:43.383Z,4.97
2019-02-18T14:44:24.594Z,3.57
2019-02-18T14:47:06.060Z,3.07
2019-02-18T14:49:36.170Z,3.67
2019-02-18T14:58:09.416Z,3.37
2019-02-18T15:00:50.705Z,3.37
2019-02-18T15:03:32.224Z,4.70
2019-02-18T15:06:14.711Z,6.07
2019-02-18T15:08:55.805Z,4.73
2019-02-18T15:11:46.227Z,3.37
2019-02-18T15:14:27.357Z,5.10
2019-02-18T15:16:57.393Z,2.90
2019-02-18T15:22:38.843Z,3.00
2019-02-18T15:25:20.257Z,4.13
2019-02-18T15:28:00.916Z,4.77
2019-02-18T15:30:42.001Z,3.57
2019-02-18T15:33:23.720Z,4.90
2019-02-18T15:36:04.961Z,5.93
2019-02-18T15:38:46.360Z,3.43
2019-02-18T15:41:28.012Z,4.03
2019-02-18T15:44:09.615Z,8.60
2019-02-18T15:46:39.841Z,3.93
2019-02-18T15:49:28.099Z,4.07
2019-02-18T15:52:16.551Z,7.43
2019-02-18T15:54:59.208Z,5.30
2019-02-18T15:57:40.318Z,3.50
2019-02-18T16:00:21.089Z,5.83
2019-02-18T16:03:02.391Z,4.87
2019-02-18T16:05:43.309Z,6.57
2019-02-18T16:08:22.611Z,4.43
2019-02-18T16:11:03.584Z,6.33
2019-02-18T16:13:44.445Z,5.93
2019-02-18T16:16:25.218Z,7.63
2019-02-18T16:19:06.557Z,6.27
2019-02-18T16:21:35.776Z,4.97
2019-02-18T16:24:24.167Z,5.50
2019-02-18T16:27:12.563Z,3.23
2019-02-18T16:29:41.783Z,5.80
2019-02-18T16:32:10.986Z,7.37
2019-02-18T16:34:59.456Z,7.40
2019-02-18T16:40:25.080Z,12.30
2019-02-18T16:43:05.891Z,6.53
2019-02-18T16:45:45.424Z,5.90
2019-02-18T16:48:34.220Z,4.97
2019-02-18T16:51:14.940Z,5.23
2019-02-18T16:53:56.181Z,3.53
2019-02-18T16:56:37.427Z,3.90
2019-02-18T16:59:18.023Z,4.53
2019-02-18T17:01:59.667Z,8.13
2019-02-18T17:04:41.054Z,28.83
2019-02-18T17:07:10.257Z,7.10
2019-02-18T17:09:58.643Z,6.40
2019-02-18T17:12:39.407Z,6.60
2019-02-18T17:15:20.776Z,9.00
2019-02-18T17:18:01.812Z,89.23
2019-02-18T17:20:42.538Z,12.80
2019-02-18T17:23:24.178Z,11.07
2019-02-18T17:26:05.051Z,8.20
2019-02-18T17:28:46.551Z,12.30
2019-02-18T17:31:28.077Z,9.87
2019-02-18T17:34:08.991Z,5.53
2019-02-18T17:36:49.934Z,5.03
2019-02-18T17:39:31.184Z,5.30
2019-02-18T17:42:11.833Z,4.57
2019-02-18T17:44:52.754Z,7.93
2019-02-18T17:47:34.066Z,5.60
2019-02-18T17:50:15.175Z,5.93
2019-02-18T17:52:58.007Z,7.37
2019-02-18T17:55:38.629Z,6.83
2019-02-18T17:58:20.008Z,6.47
2019-02-18T18:01:00.731Z,7.73
2019-02-18T18:03:42.209Z,6.67
2019-02-18T18:06:23.316Z,8.27
2019-02-18T18:09:05.099Z,8.77
2019-02-18T18:11:34.251Z,6.13
2019-02-18T18:14:22.531Z,7.13
2019-02-18T18:17:03.882Z,6.93
2019-02-18T18:19:44.626Z,8.20
2019-02-18T18:22:25.345Z,9.57
2019-02-18T18:25:05.827Z,9.73
2019-02-18T18:27:47.439Z,7.47
2019-02-18T18:30:28.824Z,8.73
2019-02-18T18:33:10.384Z,15.77
2019-02-18T18:35:51.005Z,13.90
2019-02-18T18:38:32.276Z,21.17
2019-02-18T18:41:13.023Z,17.50
2019-02-18T18:43:53.585Z,17.17
2019-02-18T18:46:35.765Z,15.67
2019-02-18T18:49:17.110Z,17.73
2019-02-18T18:51:58.223Z,9.23
2019-02-18T18:54:39.166Z,7.80
2019-02-18T18:57:20.866Z,13.30
2019-02-18T19:00:02.246Z,11.00
2019-02-18T19:02:43.540Z,8.57
2019-02-18T19:05:24.429Z,7.60
2019-02-18T19:08:05.210Z,5.93
2019-02-18T19:10:46.057Z,5.77
2019-02-18T19:13:33.437Z,11.70
2019-02-18T19:19:04.421Z,4.10
2019-02-18T19:24:48.196Z,8.80
2019-02-18T19:30:45.778Z,6.20
2019-02-18T19:33:26.495Z,13.33
2019-02-18T19:35:55.738Z,10.00
2019-02-18T19:38:44.059Z,12.97
2019-02-18T19:41:25.433Z,30.00
2019-02-18T19:44:08.320Z,49.07
2019-02-18T19:46:50.602Z,48.50
2019-02-18T19:55:10.408Z,18.50
2019-02-18T20:00:37.028Z,17.03
2019-02-18T20:06:06.780Z,15.67
2019-02-18T20:11:38.705Z,11.90
2019-02-18T20:17:46.196Z,10.17
2019-02-18T20:20:27.666Z,7.00
2019-02-18T20:29:17.863Z,31.97
2019-02-18T20:32:00.406Z,24.03
2019-02-18T20:37:33.229Z,24.30
2019-02-18T20:43:02.462Z,16.70
2019-02-18T20:45:46.408Z,9.40
2019-02-18T20:48:27.240Z,12.03
2019-02-18T20:53:58.884Z,12.87
2019-02-18T20:59:31.870Z,9.43
2019-02-18T21:02:12.414Z,10.10
2019-02-18T21:04:55.943Z,8.53
2019-02-18T21:10:24.300Z,7.10
2019-02-18T21:16:30.715Z,9.20
2019-02-18T21:21:59.254Z,16.57
2019-02-18T21:27:30.920Z,8.30
2019-02-18T21:30:12.411Z,10.33
2019-02-18T21:32:53.002Z,8.73
2019-02-18T21:35:37.425Z,8.27
2019-02-18T21:38:18.733Z,10.37
2019-02-18T21:41:02.241Z,12.83
2019-02-18T21:46:34.870Z,7.80
2019-02-18T21:52:07.758Z,7.57
2019-02-18T21:54:52.837Z,9.40
2019-02-18T21:57:32.451Z,10.20
2019-02-18T22:00:18.227Z,12.63
2019-02-18T22:03:02.379Z,11.33
2019-02-18T22:08:34.826Z,18.70
2019-02-18T22:11:16.180Z,19.40
2019-02-18T22:13:59.929Z,17.23
2019-02-18T22:16:41.070Z,20.00
2019-02-18T22:19:22.657Z,12.43
2019-02-18T22:22:03.363Z,8.77
2019-02-18T22:24:47.231Z,8.43
2019-02-18T22:30:13.838Z,9.87
2019-02-18T22:35:39.994Z,11.20
2019-02-18T22:41:05.608Z,7.97
2019-02-18T22:43:46.925Z,8.77
2019-02-18T22:46:30.502Z,8.63
2019-02-18T22:52:03.403Z,11.27
2019-02-18T22:57:35.991Z,5.77
2019-02-18T23:00:17.356Z,10.80
2019-02-18T23:02:46.536Z,9.30
2019-02-18T23:08:11.475Z,4.80
2019-02-18T23:13:38.991Z,10.37
2019-02-18T23:18:52.676Z,9.97
2019-02-18T23:23:58.421Z,9.43
2019-02-18T23:26:46.788Z,10.67
2019-02-18T23:29:30.477Z,9.33
2019-02-18T23:32:11.859Z,8.83
2019-02-18T23:34:41.051Z,8.13
2019-02-18T23:37:10.114Z,10.83
2019-02-18T23:39:58.335Z,9.50
2019-02-18T23:42:27.535Z,11.00
2019-02-18T23:44:59.349Z,8.73
2019-02-18T23:50:28.323Z,12.43
2019-02-18T23:52:57.516Z,7.37
2019-02-18T23:55:45.691Z,8.33
2019-02-18T23:58:30.052Z,11.40
